sensor_id;sensor_type;location;lat;lon;timestamp;pressure;altitude;pressure_sealevel;temperature;humidity
32243;BME280;18731;42.830;24.390;2023-02-28T04:01:12;95092.75;;;6.60;82.54
32243;BME280;18731;42.830;24.390;2023-02-28T04:03:40;95097.84;;;6.56;83.01
32243;BME280;18731;42.830;24.390;2023-02-28T04:06:08;95093.31;;;6.57;83.64
32243;BME280;18731;42.830;24.390;2023-02-28T04:08:38;95100.47;;;6.37;84.44
32243;BME280;18731;42.830;24.390;2023-02-28T04:14:09;95100.63;;;6.27;85.73
32243;BME280;18731;42.830;24.390;2023-02-28T04:16:38;95103.78;;;6.29;85.83
32243;BME280;18731;42.830;24.390;2023-02-28T04:19:05;95115.97;;;6.30;86.15
32243;BME280;18731;42.830;24.390;2023-02-28T04:21:34;95121.31;;;6.25;86.50
32243;BME280;18731;42.830;24.390;2023-02-28T04:24:00;95122.63;;;6.28;86.59
32243;BME280;18731;42.830;24.390;2023-02-28T04:26:29;95120.41;;;6.35;86.26
32243;BME280;18731;42.830;24.390;2023-02-28T04:28:55;95123.56;;;6.37;86.18
32243;BME280;18731;42.830;24.390;2023-02-28T04:31:22;95122.41;;;6.43;86.00
32243;BME280;18731;42.830;24.390;2023-02-28T04:33:47;95127.56;;;6.34;86.80
32243;BME280;18731;42.830;24.390;2023-02-28T04:36:13;95130.66;;;6.41;86.98
32243;BME280;18731;42.830;24.390;2023-02-28T04:38:40;95119.53;;;6.39;86.22
32243;BME280;18731;42.830;24.390;2023-02-28T04:41:06;95129.00;;;6.45;86.08
32243;BME280;18731;42.830;24.390;2023-02-28T04:43:31;95131.78;;;6.35;87.13
32243;BME280;18731;42.830;24.390;2023-02-28T04:46:00;95124.28;;;6.42;86.68
32243;BME280;18731;42.830;24.390;2023-02-28T04:48:32;95127.44;;;6.44;86.77
32243;BME280;18731;42.830;24.390;2023-02-28T04:51:17;95124.13;;;6.53;86.56
32243;BME280;18731;42.830;24.390;2023-02-28T04:53:45;95133.59;;;6.59;86.04
32243;BME280;18731;42.830;24.390;2023-02-28T04:56:16;95132.75;;;6.63;85.66
32243;BME280;18731;42.830;24.390;2023-02-28T04:58:42;95115.53;;;6.61;84.89
32243;BME280;18731;42.830;24.390;2023-02-28T05:01:26;95135.63;;;6.67;84.80
32243;BME280;18731;42.830;24.390;2023-02-28T05:03:54;95139.19;;;6.76;84.29
32243;BME280;18731;42.830;24.390;2023-02-28T05:06:21;95140.19;;;6.80;84.02
32243;BME280;18731;42.830;24.390;2023-02-28T05:08:47;95143.72;;;6.75;84.32
32243;BME280;18731;42.830;24.390;2023-02-28T05:11:26;95136.47;;;6.81;84.17
32243;BME280;18731;42.830;24.390;2023-02-28T05:13:53;95135.47;;;6.77;84.13
32243;BME280;18731;42.830;24.390;2023-02-28T05:16:19;95142.13;;;6.74;83.99
32243;BME280;18731;42.830;24.390;2023-02-28T05:18:45;95145.88;;;6.73;84.34
32243;BME280;18731;42.830;24.390;2023-02-28T05:21:23;95153.03;;;6.73;84.37
32243;BME280;18731;42.830;24.390;2023-02-28T05:23:49;95148.22;;;6.75;84.18
32243;BME280;18731;42.830;24.390;2023-02-28T05:26:15;95142.34;;;6.78;84.13
32243;BME280;18731;42.830;24.390;2023-02-28T05:28:41;95140.19;;;6.80;84.10
32243;BME280;18731;42.830;24.390;2023-02-28T05:31:08;95143.06;;;6.84;83.69
32243;BME280;18731;42.830;24.390;2023-02-28T05:33:36;95154.47;;;6.84;83.96
32243;BME280;18731;42.830;24.390;2023-02-28T05:36:01;95136.84;;;6.74;84.45
32243;BME280;18731;42.830;24.390;2023-02-28T05:38:27;95157.13;;;6.84;84.20
32243;BME280;18731;42.830;24.390;2023-02-28T05:40:52;95155.53;;;6.83;84.22
32243;BME280;18731;42.830;24.390;2023-02-28T05:43:19;95160.78;;;6.88;83.98
32243;BME280;18731;42.830;24.390;2023-02-28T05:45:44;95159.13;;;6.92;83.85
32243;BME280;18731;42.830;24.390;2023-02-28T05:48:10;95162.06;;;6.91;83.76
32243;BME280;18731;42.830;24.390;2023-02-28T05:50:36;95163.94;;;6.90;83.99
32243;BME280;18731;42.830;24.390;2023-02-28T05:53:02;95151.38;;;6.77;83.75
32243;BME280;18731;42.830;24.390;2023-02-28T05:55:27;95169.31;;;6.85;83.79
32243;BME280;18731;42.830;24.390;2023-02-28T05:57:53;95172.47;;;6.87;84.36
32243;BME280;18731;42.830;24.390;2023-02-28T06:00:19;95171.19;;;6.85;84.14
32243;BME280;18731;42.830;24.390;2023-02-28T06:02:45;95157.19;;;6.79;84.16
32243;BME280;18731;42.830;24.390;2023-02-28T06:05:15;95158.34;;;6.92;84.22
32243;BME280;18731;42.830;24.390;2023-02-28T06:07:41;95170.16;;;6.99;84.15
32243;BME280;18731;42.830;24.390;2023-02-28T06:10:08;95166.06;;;7.07;84.03
32243;BME280;18731;42.830;24.390;2023-02-28T06:12:34;95165.41;;;7.15;83.97
32243;BME280;18731;42.830;24.390;2023-02-28T06:14:59;95170.56;;;7.25;83.67
32243;BME280;18731;42.830;24.390;2023-02-28T06:17:25;95156.50;;;7.25;83.34
32243;BME280;18731;42.830;24.390;2023-02-28T06:19:51;95170.69;;;7.34;83.69
32243;BME280;18731;42.830;24.390;2023-02-28T06:22:16;95168.97;;;7.43;83.21
32243;BME280;18731;42.830;24.390;2023-02-28T06:24:42;95173.97;;;7.45;82.64
32243;BME280;18731;42.830;24.390;2023-02-28T06:27:07;95170.75;;;7.48;82.68
32243;BME280;18731;42.830;24.390;2023-02-28T06:29:35;95164.72;;;7.42;82.42
32243;BME280;18731;42.830;24.390;2023-02-28T06:32:01;95185.81;;;7.52;82.72
32243;BME280;18731;42.830;24.390;2023-02-28T06:34:27;95184.34;;;7.60;82.37
32243;BME280;18731;42.830;24.390;2023-02-28T06:36:53;95182.97;;;7.62;81.98
32243;BME280;18731;42.830;24.390;2023-02-28T06:39:18;95177.56;;;7.67;81.56
32243;BME280;18731;42.830;24.390;2023-02-28T06:41:44;95177.66;;;7.62;81.29
32243;BME280;18731;42.830;24.390;2023-02-28T06:44:14;95185.75;;;7.71;80.71
32243;BME280;18731;42.830;24.390;2023-02-28T06:46:41;95188.13;;;7.72;80.79
32243;BME280;18731;42.830;24.390;2023-02-28T06:49:08;95180.16;;;7.72;80.63
32243;BME280;18731;42.830;24.390;2023-02-28T06:51:35;95183.38;;;7.69;80.62
32243;BME280;18731;42.830;24.390;2023-02-28T06:54:01;95186.13;;;7.64;81.44
32243;BME280;18731;42.830;24.390;2023-02-28T06:56:27;95182.59;;;7.69;81.10
32243;BME280;18731;42.830;24.390;2023-02-28T06:58:52;95190.66;;;7.64;81.65
32243;BME280;18731;42.830;24.390;2023-02-28T07:01:19;95185.53;;;7.67;81.98
32243;BME280;18731;42.830;24.390;2023-02-28T07:03:45;95171.72;;;7.52;82.34
32243;BME280;18731;42.830;24.390;2023-02-28T07:06:11;95172.53;;;7.52;82.18
32243;BME280;18731;42.830;24.390;2023-02-28T07:08:37;95184.22;;;7.51;82.73
32243;BME280;18731;42.830;24.390;2023-02-28T07:11:04;95185.75;;;7.38;83.47
32243;BME280;18731;42.830;24.390;2023-02-28T07:13:30;95184.56;;;7.12;85.00
32243;BME280;18731;42.830;24.390;2023-02-28T07:16:00;95182.38;;;7.00;86.69
32243;BME280;18731;42.830;24.390;2023-02-28T07:18:26;95180.50;;;6.82;87.41
32243;BME280;18731;42.830;24.390;2023-02-28T07:20:53;95180.28;;;6.60;88.69
32243;BME280;18731;42.830;24.390;2023-02-28T07:23:19;95189.22;;;6.45;89.97
32243;BME280;18731;42.830;24.390;2023-02-28T07:25:44;95183.63;;;6.47;90.63
32243;BME280;18731;42.830;24.390;2023-02-28T07:28:11;95181.47;;;6.49;90.94
32243;BME280;18731;42.830;24.390;2023-02-28T07:30:37;95162.97;;;6.43;91.32
32243;BME280;18731;42.830;24.390;2023-02-28T07:33:03;95191.44;;;6.57;90.78
32243;BME280;18731;42.830;24.390;2023-02-28T07:35:29;95182.19;;;6.54;90.77
32243;BME280;18731;42.830;24.390;2023-02-28T07:37:58;95187.00;;;6.52;90.94
32243;BME280;18731;42.830;24.390;2023-02-28T07:40:24;95187.78;;;6.53;90.38
32243;BME280;18731;42.830;24.390;2023-02-28T07:42:50;95190.00;;;6.45;90.54
32243;BME280;18731;42.830;24.390;2023-02-28T07:45:15;95193.22;;;6.42;91.48
32243;BME280;18731;42.830;24.390;2023-02-28T07:47:42;95194.97;;;6.52;91.54
32243;BME280;18731;42.830;24.390;2023-02-28T07:50:10;95179.78;;;6.58;91.02
32243;BME280;18731;42.830;24.390;2023-02-28T07:52:37;95188.75;;;6.81;90.52
32243;BME280;18731;42.830;24.390;2023-02-28T07:55:04;95194.19;;;6.89;89.75
32243;BME280;18731;42.830;24.390;2023-02-28T07:57:30;95190.63;;;6.99;88.70
32243;BME280;18731;42.830;24.390;2023-02-28T07:59:56;95190.69;;;7.13;88.75
32243;BME280;18731;42.830;24.390;2023-02-28T08:02:22;95182.44;;;7.14;88.54
32243;BME280;18731;42.830;24.390;2023-02-28T08:04:47;95196.31;;;7.43;87.06
32243;BME280;18731;42.830;24.390;2023-02-28T08:07:15;95194.56;;;7.53;86.20
32243;BME280;18731;42.830;24.390;2023-02-28T08:09:41;95189.88;;;7.63;85.45
32243;BME280;18731;42.830;24.390;2023-02-28T08:12:08;95197.25;;;7.66;84.81
32243;BME280;18731;42.830;24.390;2023-02-28T08:14:34;95190.47;;;7.74;84.71
32243;BME280;18731;42.830;24.390;2023-02-28T08:17:00;95191.13;;;7.85;84.20
32243;BME280;18731;42.830;24.390;2023-02-28T08:19:25;95186.59;;;7.85;84.34
32243;BME280;18731;42.830;24.390;2023-02-28T08:21:51;95187.28;;;7.91;84.21
32243;BME280;18731;42.830;24.390;2023-02-28T08:24:17;95181.28;;;7.99;83.40
32243;BME280;18731;42.830;24.390;2023-02-28T08:26:43;95187.81;;;8.06;82.25
32243;BME280;18731;42.830;24.390;2023-02-28T08:29:08;95188.41;;;8.17;82.53
32243;BME280;18731;42.830;24.390;2023-02-28T08:31:34;95183.06;;;8.17;82.68
32243;BME280;18731;42.830;24.390;2023-02-28T08:34:12;95192.03;;;8.21;82.25
32243;BME280;18731;42.830;24.390;2023-02-28T08:36:38;95183.06;;;8.17;81.78
32243;BME280;18731;42.830;24.390;2023-02-28T08:39:04;95191.16;;;8.12;81.22
32243;BME280;18731;42.830;24.390;2023-02-28T08:41:30;95193.00;;;7.98;81.43
32243;BME280;18731;42.830;24.390;2023-02-28T08:43:56;95192.69;;;7.86;82.54
32243;BME280;18731;42.830;24.390;2023-02-28T08:46:22;95198.31;;;7.84;83.13
32243;BME280;18731;42.830;24.390;2023-02-28T08:48:51;95190.34;;;7.84;82.66
32243;BME280;18731;42.830;24.390;2023-02-28T08:51:18;95188.81;;;7.78;84.75
32243;BME280;18731;42.830;24.390;2023-02-28T08:53:52;95192.25;;;7.79;84.99
32243;BME280;18731;42.830;24.390;2023-02-28T08:56:17;95191.72;;;7.82;84.06
32243;BME280;18731;42.830;24.390;2023-02-28T08:58:44;95198.41;;;7.93;83.33
32243;BME280;18731;42.830;24.390;2023-02-28T09:01:25;95189.28;;;7.99;82.36
32243;BME280;18731;42.830;24.390;2023-02-28T09:03:52;95184.94;;;8.03;81.68
32243;BME280;18731;42.830;24.390;2023-02-28T09:06:20;95175.97;;;7.99;81.75
32243;BME280;18731;42.830;24.390;2023-02-28T09:08:47;95180.22;;;8.00;81.88
32243;BME280;18731;42.830;24.390;2023-02-28T09:11:12;95180.81;;;7.97;81.63
32243;BME280;18731;42.830;24.390;2023-02-28T09:13:39;95182.97;;;7.95;81.62
32243;BME280;18731;42.830;24.390;2023-02-28T09:16:07;95186.78;;;7.89;81.68
32243;BME280;18731;42.830;24.390;2023-02-28T09:18:35;95173.41;;;7.80;82.66
32243;BME280;18731;42.830;24.390;2023-02-28T09:21:07;95184.84;;;7.94;82.07
32243;BME280;18731;42.830;24.390;2023-02-28T09:23:33;95185.81;;;7.98;82.38
32243;BME280;18731;42.830;24.390;2023-02-28T09:25:58;95192.72;;;7.99;81.90
32243;BME280;18731;42.830;24.390;2023-02-28T09:28:24;95185.44;;;8.05;82.61
32243;BME280;18731;42.830;24.390;2023-02-28T09:30:53;95189.56;;;8.11;82.29
32243;BME280;18731;42.830;24.390;2023-02-28T09:33:20;95188.69;;;8.16;80.63
32243;BME280;18731;42.830;24.390;2023-02-28T09:35:47;95194.69;;;8.21;81.49
32243;BME280;18731;42.830;24.390;2023-02-28T09:38:13;95187.13;;;8.28;81.20
32243;BME280;18731;42.830;24.390;2023-02-28T09:41:03;95178.25;;;8.19;81.41
32243;BME280;18731;42.830;24.390;2023-02-28T09:43:37;95185.66;;;8.22;81.41
32243;BME280;18731;42.830;24.390;2023-02-28T09:46:18;95187.53;;;8.35;81.79
32243;BME280;18731;42.830;24.390;2023-02-28T09:48:49;95189.59;;;8.38;81.75
32243;BME280;18731;42.830;24.390;2023-02-28T09:54:04;95179.94;;;8.56;81.15
32243;BME280;18731;42.830;24.390;2023-02-28T09:56:39;95193.34;;;8.65;80.07
32243;BME280;18731;42.830;24.390;2023-02-28T09:59:11;95180.13;;;8.60;80.87
32243;BME280;18731;42.830;24.390;2023-02-28T10:01:53;95177.84;;;8.67;79.81
32243;BME280;18731;42.830;24.390;2023-02-28T10:04:59;95187.81;;;8.61;79.60
32243;BME280;18731;42.830;24.390;2023-02-28T10:09:57;95176.69;;;8.46;80.67
32243;BME280;18731;42.830;24.390;2023-02-28T10:12:25;95165.66;;;8.52;81.19
32243;BME280;18731;42.830;24.390;2023-02-28T10:14:52;95159.94;;;8.59;81.87
32243;BME280;18731;42.830;24.390;2023-02-28T10:17:23;95158.13;;;8.68;81.45
32243;BME280;18731;42.830;24.390;2023-02-28T10:20:14;95157.44;;;8.76;79.95
32243;BME280;18731;42.830;24.390;2023-02-28T10:26:12;95145.97;;;8.89;79.42
32243;BME280;18731;42.830;24.390;2023-02-28T10:28:39;95159.53;;;9.01;79.68
32243;BME280;18731;42.830;24.390;2023-02-28T10:31:11;95152.59;;;8.78;79.86
32243;BME280;18731;42.830;24.390;2023-02-28T10:33:37;95145.59;;;8.82;80.14
32243;BME280;18731;42.830;24.390;2023-02-28T10:36:04;95153.31;;;8.70;79.90
32243;BME280;18731;42.830;24.390;2023-02-28T10:38:37;95140.81;;;8.57;80.27
32243;BME280;18731;42.830;24.390;2023-02-28T10:41:16;95152.75;;;8.46;80.81
32243;BME280;18731;42.830;24.390;2023-02-28T10:43:43;95133.72;;;8.25;82.01
32243;BME280;18731;42.830;24.390;2023-02-28T10:46:14;95143.47;;;8.29;82.00
32243;BME280;18731;42.830;24.390;2023-02-28T10:49:01;95145.66;;;8.27;82.29
32243;BME280;18731;42.830;24.390;2023-02-28T10:51:35;95141.72;;;8.11;83.13
32243;BME280;18731;42.830;24.390;2023-02-28T10:54:03;95139.44;;;8.04;83.04
32243;BME280;18731;42.830;24.390;2023-02-28T10:56:30;95142.50;;;7.98;83.75
32243;BME280;18731;42.830;24.390;2023-02-28T10:59:03;95143.47;;;7.88;84.29
32243;BME280;18731;42.830;24.390;2023-02-28T11:03:57;95134.97;;;7.72;84.88
32243;BME280;18731;42.830;24.390;2023-02-28T11:06:29;95135.06;;;7.67;85.30
32243;BME280;18731;42.830;24.390;2023-02-28T11:09:14;95140.97;;;7.64;84.83
32243;BME280;18731;42.830;24.390;2023-02-28T11:11:45;95130.63;;;7.63;85.47
32243;BME280;18731;42.830;24.390;2023-02-28T11:14:25;95132.50;;;7.62;84.76
32243;BME280;18731;42.830;24.390;2023-02-28T11:16:52;95136.16;;;7.66;84.37
32243;BME280;18731;42.830;24.390;2023-02-28T11:19:33;95129.22;;;7.52;84.89
32243;BME280;18731;42.830;24.390;2023-02-28T11:22:02;95127.88;;;7.54;85.33
32243;BME280;18731;42.830;24.390;2023-02-28T11:24:35;95120.19;;;7.53;86.10
32243;BME280;18731;42.830;24.390;2023-02-28T11:27:03;95128.66;;;7.68;85.25
32243;BME280;18731;42.830;24.390;2023-02-28T11:29:31;95120.59;;;7.73;84.59
32243;BME280;18731;42.830;24.390;2023-02-28T11:32:05;95135.22;;;7.90;84.25
32243;BME280;18731;42.830;24.390;2023-02-28T11:34:32;95109.22;;;7.87;83.67
32243;BME280;18731;42.830;24.390;2023-02-28T11:36:59;95124.38;;;8.00;82.89
32243;BME280;18731;42.830;24.390;2023-02-28T11:39:25;95123.41;;;7.82;83.13
32243;BME280;18731;42.830;24.390;2023-02-28T11:42:13;95129.22;;;7.98;82.85
32243;BME280;18731;42.830;24.390;2023-02-28T11:50:14;95133.44;;;7.99;82.28
32243;BME280;18731;42.830;24.390;2023-02-28T11:52:51;95124.09;;;8.01;82.17
32243;BME280;18731;42.830;24.390;2023-02-28T11:58:19;95120.63;;;8.28;82.10
32243;BME280;18731;42.830;24.390;2023-02-28T12:10:26;95131.84;;;8.53;79.25
32243;BME280;18731;42.830;24.390;2023-02-28T12:26:54;95135.81;;;8.14;79.79
32243;BME280;18731;42.830;24.390;2023-02-28T12:29:36;95142.13;;;8.04;80.20
32243;BME280;18731;42.830;24.390;2023-02-28T12:32:11;95122.22;;;7.88;80.65
32243;BME280;18731;42.830;24.390;2023-02-28T12:34:47;95136.97;;;7.81;81.66
32243;BME280;18731;42.830;24.390;2023-02-28T12:37:36;95139.34;;;7.82;81.87
32243;BME280;18731;42.830;24.390;2023-02-28T12:40:21;95138.31;;;7.78;82.37
32243;BME280;18731;42.830;24.390;2023-02-28T12:42:57;95141.56;;;7.75;82.06
32243;BME280;18731;42.830;24.390;2023-02-28T12:48:59;95139.53;;;7.86;81.54
32243;BME280;18731;42.830;24.390;2023-02-28T12:50:59;95130.88;;;7.80;81.39
32243;BME280;18731;42.830;24.390;2023-02-28T12:53:38;95141.91;;;7.87;81.29
32243;BME280;18731;42.830;24.390;2023-02-28T12:56:48;95138.16;;;7.88;81.10
32243;BME280;18731;42.830;24.390;2023-02-28T12:59:32;95135.59;;;7.83;81.16
32243;BME280;18731;42.830;24.390;2023-02-28T13:10:47;95135.66;;;7.78;81.81
32243;BME280;18731;42.830;24.390;2023-02-28T13:13:21;95122.78;;;7.71;81.52
32243;BME280;18731;42.830;24.390;2023-02-28T13:16:03;95140.69;;;7.80;81.01
32243;BME280;18731;42.830;24.390;2023-02-28T13:18:33;95133.50;;;7.66;81.23
32243;BME280;18731;42.830;24.390;2023-02-28T13:21:01;95142.84;;;7.78;81.52
32243;BME280;18731;42.830;24.390;2023-02-28T13:26:17;95137.03;;;7.75;81.65
32243;BME280;18731;42.830;24.390;2023-02-28T13:31:20;95119.84;;;7.87;81.72
32243;BME280;18731;42.830;24.390;2023-02-28T13:38:44;95127.63;;;7.97;80.54
32243;BME280;18731;42.830;24.390;2023-02-28T13:44:14;95126.34;;;8.08;79.58
32243;BME280;18731;42.830;24.390;2023-02-28T13:49:30;95133.84;;;8.06;80.13
32243;BME280;18731;42.830;24.390;2023-02-28T14:06:32;95134.03;;;7.82;81.76
32243;BME280;18731;42.830;24.390;2023-02-28T14:09:06;95136.16;;;7.66;81.86
32243;BME280;18731;42.830;24.390;2023-02-28T14:11:42;95149.63;;;7.70;82.18
32243;BME280;18731;42.830;24.390;2023-02-28T14:16:53;95141.88;;;7.73;82.54
32243;BME280;18731;42.830;24.390;2023-02-28T14:19:24;95144.81;;;7.72;82.42
32243;BME280;18731;42.830;24.390;2023-02-28T14:25:11;95148.75;;;7.74;81.90
32243;BME280;18731;42.830;24.390;2023-02-28T14:33:31;95142.44;;;7.57;82.72
32243;BME280;18731;42.830;24.390;2023-02-28T14:36:10;95149.69;;;7.51;83.16
32243;BME280;18731;42.830;24.390;2023-02-28T14:38:45;95151.78;;;7.54;84.38
32243;BME280;18731;42.830;24.390;2023-02-28T14:41:26;95141.06;;;7.59;84.53
32243;BME280;18731;42.830;24.390;2023-02-28T14:43:59;95151.09;;;7.62;84.37
32243;BME280;18731;42.830;24.390;2023-02-28T14:46:35;95147.56;;;7.67;83.53
32243;BME280;18731;42.830;24.390;2023-02-28T14:49:06;95151.50;;;7.69;83.75
32243;BME280;18731;42.830;24.390;2023-02-28T14:51:32;95132.59;;;7.57;83.67
32243;BME280;18731;42.830;24.390;2023-02-28T14:54:01;95137.94;;;7.71;83.04
32243;BME280;18731;42.830;24.390;2023-02-28T14:56:35;95144.13;;;7.66;83.92
32243;BME280;18731;42.830;24.390;2023-02-28T14:59:03;95140.97;;;7.64;83.54
32243;BME280;18731;42.830;24.390;2023-02-28T15:01:29;95135.25;;;7.57;83.41
32243;BME280;18731;42.830;24.390;2023-02-28T15:04:05;95152.50;;;7.73;83.15
32243;BME280;18731;42.830;24.390;2023-02-28T15:06:32;95147.81;;;7.84;82.72
32243;BME280;18731;42.830;24.390;2023-02-28T15:09:15;95147.59;;;7.81;83.04
32243;BME280;18731;42.830;24.390;2023-02-28T15:11:45;95146.59;;;7.77;82.96
32243;BME280;18731;42.830;24.390;2023-02-28T15:14:19;95148.16;;;7.78;82.64
32243;BME280;18731;42.830;24.390;2023-02-28T15:17:14;95131.00;;;7.56;83.03
32243;BME280;18731;42.830;24.390;2023-02-28T15:19:40;95155.91;;;7.60;83.32
32243;BME280;18731;42.830;24.390;2023-02-28T15:22:19;95158.97;;;7.67;82.89
32243;BME280;18731;42.830;24.390;2023-02-28T15:24:49;95145.09;;;7.57;83.03
32243;BME280;18731;42.830;24.390;2023-02-28T15:27:26;95157.19;;;7.63;82.47
32243;BME280;18731;42.830;24.390;2023-02-28T15:30:04;95159.94;;;7.58;83.18
32243;BME280;18731;42.830;24.390;2023-02-28T15:32:33;95146.16;;;7.56;83.19
32243;BME280;18731;42.830;24.390;2023-02-28T15:38:00;95159.56;;;7.64;82.87
32243;BME280;18731;42.830;24.390;2023-02-28T15:43:37;95150.88;;;7.59;82.49
32243;BME280;18731;42.830;24.390;2023-02-28T15:46:09;95165.84;;;7.55;82.68
32243;BME280;18731;42.830;24.390;2023-02-28T15:48:42;95162.66;;;7.39;83.03
32243;BME280;18731;42.830;24.390;2023-02-28T15:51:16;95158.13;;;7.39;83.64
32243;BME280;18731;42.830;24.390;2023-02-28T15:54:00;95166.09;;;7.39;83.57
32243;BME280;18731;42.830;24.390;2023-02-28T15:56:29;95167.00;;;7.49;82.92
32243;BME280;18731;42.830;24.390;2023-02-28T15:59:05;95165.72;;;7.46;83.16
32243;BME280;18731;42.830;24.390;2023-02-28T16:01:35;95172.31;;;7.49;82.85
32243;BME280;18731;42.830;24.390;2023-02-28T16:04:04;95172.28;;;7.35;83.62
32243;BME280;18731;42.830;24.390;2023-02-28T16:06:34;95181.53;;;7.37;83.74
32243;BME280;18731;42.830;24.390;2023-02-28T16:09:00;95157.00;;;7.27;83.53
32243;BME280;18731;42.830;24.390;2023-02-28T16:11:26;95177.50;;;7.40;83.36
32243;BME280;18731;42.830;24.390;2023-02-28T16:13:52;95177.63;;;7.49;83.08
32243;BME280;18731;42.830;24.390;2023-02-28T16:16:24;95181.16;;;7.44;82.74
32243;BME280;18731;42.830;24.390;2023-02-28T16:18:52;95189.22;;;7.39;82.96
32243;BME280;18731;42.830;24.390;2023-02-28T16:21:18;95187.63;;;7.38;82.67
32243;BME280;18731;42.830;24.390;2023-02-28T16:23:43;95183.91;;;7.39;82.51
32243;BME280;18731;42.830;24.390;2023-02-28T16:26:19;95191.28;;;7.42;82.19
32243;BME280;18731;42.830;24.390;2023-02-28T16:28:45;95195.31;;;7.39;82.58
32243;BME280;18731;42.830;24.390;2023-02-28T16:31:11;95194.03;;;7.37;82.65
32243;BME280;18731;42.830;24.390;2023-02-28T16:33:43;95192.84;;;7.43;82.44
32243;BME280;18731;42.830;24.390;2023-02-28T16:36:13;95197.09;;;7.44;82.40
32243;BME280;18731;42.830;24.390;2023-02-28T16:38:39;95190.28;;;7.38;82.17
32243;BME280;18731;42.830;24.390;2023-02-28T16:41:05;95202.47;;;7.39;82.35
32243;BME280;18731;42.830;24.390;2023-02-28T16:43:31;95191.94;;;7.34;82.58
32243;BME280;18731;42.830;24.390;2023-02-28T16:45:57;95197.84;;;7.31;82.77
32243;BME280;18731;42.830;24.390;2023-02-28T16:48:24;95199.50;;;7.27;82.37
32243;BME280;18731;42.830;24.390;2023-02-28T16:50:50;95195.47;;;7.29;82.42
32243;BME280;18731;42.830;24.390;2023-02-28T16:53:16;95190.72;;;7.26;82.44
32243;BME280;18731;42.830;24.390;2023-02-28T16:55:42;95202.56;;;7.34;82.46
32243;BME280;18731;42.830;24.390;2023-02-28T16:58:14;95191.38;;;7.37;82.22
32243;BME280;18731;42.830;24.390;2023-02-28T17:00:40;95188.38;;;7.25;81.73
32243;BME280;18731;42.830;24.390;2023-02-28T17:03:13;95202.16;;;7.27;82.17
32243;BME280;18731;42.830;24.390;2023-02-28T17:05:44;95203.28;;;7.21;82.42
32243;BME280;18731;42.830;24.390;2023-02-28T17:08:11;95212.91;;;7.17;82.40
32243;BME280;18731;42.830;24.390;2023-02-28T17:10:36;95213.50;;;7.14;82.28
32243;BME280;18731;42.830;24.390;2023-02-28T17:13:02;95219.66;;;7.09;82.33
32243;BME280;18731;42.830;24.390;2023-02-28T17:15:28;95208.91;;;7.00;82.54
32243;BME280;18731;42.830;24.390;2023-02-28T17:17:53;95210.69;;;7.05;82.58
32243;BME280;18731;42.830;24.390;2023-02-28T17:20:21;95205.25;;;6.77;83.21
32243;BME280;18731;42.830;24.390;2023-02-28T17:22:52;95214.06;;;6.73;84.24
32243;BME280;18731;42.830;24.390;2023-02-28T17:25:18;95212.59;;;6.62;84.73
32243;BME280;18731;42.830;24.390;2023-02-28T17:27:44;95210.03;;;6.57;85.34
32243;BME280;18731;42.830;24.390;2023-02-28T17:30:21;95208.78;;;6.49;85.81
32243;BME280;18731;42.830;24.390;2023-02-28T17:32:47;95209.00;;;6.53;86.06
32243;BME280;18731;42.830;24.390;2023-02-28T17:35:13;95206.28;;;6.58;85.75
32243;BME280;18731;42.830;24.390;2023-02-28T17:37:39;95202.56;;;6.59;85.85
32243;BME280;18731;42.830;24.390;2023-02-28T17:40:09;95191.28;;;6.48;85.75
32243;BME280;18731;42.830;24.390;2023-02-28T17:42:37;95189.56;;;6.38;85.91
32243;BME280;18731;42.830;24.390;2023-02-28T17:45:03;95196.09;;;6.46;86.10
32243;BME280;18731;42.830;24.390;2023-02-28T17:47:28;95198.03;;;6.40;86.64
32243;BME280;18731;42.830;24.390;2023-02-28T17:49:54;95187.97;;;6.37;86.13
32243;BME280;18731;42.830;24.390;2023-02-28T17:52:19;95195.59;;;6.44;85.48
32243;BME280;18731;42.830;24.390;2023-02-28T17:54:47;95195.16;;;6.37;86.09
32243;BME280;18731;42.830;24.390;2023-02-28T17:57:15;95186.97;;;6.33;86.23
32243;BME280;18731;42.830;24.390;2023-02-28T17:59:41;95188.03;;;6.32;85.94
32243;BME280;18731;42.830;24.390;2023-02-28T18:02:09;95176.03;;;6.16;86.08
32243;BME280;18731;42.830;24.390;2023-02-28T18:04:36;95182.06;;;6.22;86.25
32243;BME280;18731;42.830;24.390;2023-02-28T18:07:02;95175.31;;;6.10;86.30
32243;BME280;18731;42.830;24.390;2023-02-28T18:09:28;95180.84;;;6.14;86.47
32243;BME280;18731;42.830;24.390;2023-02-28T18:11:54;95178.13;;;6.19;86.08
32243;BME280;18731;42.830;24.390;2023-02-28T18:14:22;95185.78;;;6.21;85.89
32243;BME280;18731;42.830;24.390;2023-02-28T18:16:49;95177.34;;;6.19;86.25
32243;BME280;18731;42.830;24.390;2023-02-28T18:19:15;95180.72;;;6.24;85.85
32243;BME280;18731;42.830;24.390;2023-02-28T18:21:50;95179.38;;;6.27;85.28
32243;BME280;18731;42.830;24.390;2023-02-28T18:24:17;95175.84;;;6.31;84.78
32243;BME280;18731;42.830;24.390;2023-02-28T18:26:43;95174.00;;;6.32;84.59
32243;BME280;18731;42.830;24.390;2023-02-28T18:29:16;95173.28;;;6.26;84.60
32243;BME280;18731;42.830;24.390;2023-02-28T18:31:42;95176.38;;;6.33;84.23
32243;BME280;18731;42.830;24.390;2023-02-28T18:34:08;95171.97;;;6.24;83.93
32243;BME280;18731;42.830;24.390;2023-02-28T18:36:33;95169.59;;;6.22;83.94
32243;BME280;18731;42.830;24.390;2023-02-28T18:38:59;95174.41;;;6.20;84.11
32243;BME280;18731;42.830;24.390;2023-02-28T18:41:25;95167.00;;;6.17;84.13
32243;BME280;18731;42.830;24.390;2023-02-28T18:43:51;95179.69;;;6.20;83.60
32243;BME280;18731;42.830;24.390;2023-02-28T18:46:19;95165.22;;;6.12;84.41
32243;BME280;18731;42.830;24.390;2023-02-28T18:48:45;95174.97;;;6.17;83.99
32243;BME280;18731;42.830;24.390;2023-02-28T18:51:17;95173.94;;;6.13;83.42
32243;BME280;18731;42.830;24.390;2023-02-28T18:53:45;95176.44;;;6.04;84.16
32243;BME280;18731;42.830;24.390;2023-02-28T18:56:15;95177.72;;;6.07;84.06
32243;BME280;18731;42.830;24.390;2023-02-28T18:58:41;95189.75;;;5.99;84.52